Wednesday, June 20, 2018, 10:46 AM EDT
Back to Local

KPHL, Philadelphia International Airpt

Location: Philadelphia, PA, United States Lat: 39.867
Local Time: 10:46 AM EDT (14:46 GMT) Lon: -75.233
Time Zone: US/Eastern Elev: 19 ft

Show me the last for .
Show Decoded

2018-06-20 09:54 METAR KPHL 201354Z 08003KT 10SM FEW035 FEW160 26/16 A2988 RMK AO2 SLP118
                 T02610156 $ =
2018-06-20 08:54 METAR KPHL 201254Z 10006KT 10SM SCT160 24/16 A2989 RMK AO2 SLP121 T02390161 $ =
2018-06-20 07:54 METAR KPHL 201154Z VRB06KT 10SM SCT160 23/15 A2989 RMK AO2 SLP122 T02330150
                 10233 20206 51009 $ =
2018-06-20 06:54 METAR KPHL 201054Z VRB05KT 10SM FEW100 BKN160 22/14 A2989 RMK AO2 SLP120
                 T02170139 $ =
2018-06-20 05:54 METAR KPHL 200954Z 00000KT 10SM FEW110 BKN160 BKN220 21/13 A2988 RMK AO2 SLP116
                 T02110128 $ =
2018-06-20 04:54 METAR KPHL 200854Z 01005KT 10SM FEW160 SCT210 21/12 A2987 RMK AO2 SLP113
                 T02110122 55001 $ =
2018-06-20 03:54 METAR KPHL 200754Z 34004KT 10SM SCT220 21/12 A2986 RMK AO2 SLP111 T02110122 $ =
2018-06-20 02:54 METAR KPHL 200654Z 34004KT 10SM SCT220 21/12 A2987 RMK AO2 SLP114 T02110122 $ =
2018-06-20 01:54 METAR KPHL 200554Z 01006KT 10SM SCT200 23/12 A2987 RMK AO2 SLP114 T02280117
                 10289 20222 50001 $ =
2018-06-20 00:54 METAR KPHL 200454Z 01007KT 10SM SCT230 SCT280 23/12 A2988 RMK AO2 SLP117
                 T02330117 403110233 $ =
2018-06-19 23:54 METAR KPHL 200354Z 01006KT 10SM SCT230 BKN280 23/12 A2987 RMK AO2 SLP115
                 T02330122 $ =
2018-06-19 22:54 METAR KPHL 200254Z 36009KT 10SM FEW280 25/12 A2987 RMK AO2 SLP113 T02500122
                 50016 $ =
2018-06-19 21:54 METAR KPHL 200154Z 35009G19KT 10SM FEW180 SCT250 26/13 A2987 RMK AO2 SLP114
                 T02610128 $ =
2018-06-19 20:54 METAR KPHL 200054Z 33005KT 10SM FEW060 FEW180 SCT250 28/12 A2984 RMK AO2 SLP105
                 T02780122 $ =
2018-06-19 19:54 METAR KPHL 192354Z 01009KT 10SM FEW060 FEW180 SCT250 29/13 A2982 RMK AO2 SLP097
                 T02890133 10311 20289 53008 $ =
2018-06-19 18:54 METAR KPHL 192254Z 34010KT 10SM FEW060 FEW180 SCT250 29/13 A2980 RMK AO2 SLP092
                 T02940133 $ =
2018-06-19 17:54 METAR KPHL 192154Z 35011G18KT 10SM FEW060 SCT180 SCT250 31/14 A2979 RMK AO2
                 SLP086 T03060139 =
2018-06-19 16:54 METAR KPHL 192054Z 32007KT 10SM FEW055 SCT180 SCT250 31/15 A2979 RMK AO2 SLP089
                 T03060150 56007 =
2018-06-19 15:54 METAR KPHL 191954Z 32009KT 10SM FEW050 SCT085 SCT250 31/15 A2980 RMK AO2 WSHFT
                 1915 SLP090 T03110150 =
2018-06-19 15:35 METAR KPHL 191935Z 01011G16KT 10SM SCT050 SCT085 BKN250 31/14 A2980 RMK AO2
                 WSHFT 1915 T03060139 =
2018-06-19 14:54 METAR KPHL 191854Z 32011KT 10SM FEW045 SCT085 BKN250 31/19 A2980 RMK AO2 SLP091
                 T03060189 =
2018-06-19 13:54 METAR KPHL 191754Z 33010G14KT 10SM FEW038 SCT070 BKN250 29/19 A2982 RMK AO2
                 SLP096 60000 T02890189 10289 20261 58002 =
2018-06-19 12:54 METAR KPHL 191654Z 32009KT 10SM FEW032 SCT039 BKN070 28/20 A2983 RMK AO2 SLP099
                 T02830200 =
2018-06-19 11:54 METAR KPHL 191554Z 34010G18KT 10SM SCT031 BKN050 OVC070 28/20 A2983 RMK AO2
                 SLP100 T02780200 =
2018-06-19 10:54 METAR KPHL 191454Z 35010KT 10SM FEW024 SCT037 BKN070 BKN250 29/21 A2982 RMK AO2
                 RAE30 SLP098 P0000 60000 T02890211 51006 =

Support USWX by starting your Amazon purchase here.